Startpagina
METAR-TAF:

METAR-TAF

Vliegvelden :

Ulaanbaatar, Mongolië

Luchthaven Dzjengis Khan

breedte: 47-55N, lengte: 106-52E, hoogte: 1306 m

Actueel weer

Dit bericht is 23 minuten geleden gemaakt, om 21:30 UTC
Wind 4 kt uit variabele richting
Temperatuur -25°C
Vochtigheid 76%
Druk 1013 hPa
Zicht 10 km of meer
geen wolken onder 1500 m en geen cumulonimbus

METAR: ZMUB 182130Z VRB02MPS CAVOK M25/M28 Q1013 NOSIG RMK QFE653.0 74

Tijdstip: 05:53 (21:53 UTC)

Verwachting

Dit bericht is 5 uur en het 13 minuten geleden gemaakt, om 16:40 UTC
Verwachting geldig van 18 om 18 UTC tot 19 om 24 UTC
Wind 4 kt uit variabele richting
Zicht: 6000 m
Verspreide wolken op 10000 ft
Wijzigt naar
van 18 om 23 UTC tot 19 om 01 UTC
Zicht: 3000 m
rook
Wijzigt naar
van 19 om 05 UTC tot 19 om 07 UTC
Zicht: 6000 m

TAF: ZMUB 181640Z 1818/1924 VRB02MPS 6000 SCT100 TNM31/1822Z TXM17/1907Z BECMG 1823/1901 3000 FU BECMG 1905/1907 6000

Waarnemingen en weersverwachtingen van meer dan 4000 vliegvelden (METAR en TAF).

De beschikbare stations zijn de gele en rode punten op de kaart.

Ga met uw muis naar het station om de naam te zien.

Klik dan om waarnemingen en weersverwachtingen te zien.

kaart wijzigen: klik op de groene knoppen met een zwart kruis om in te zoomen, op de groene knop met een streepje om uit te zoomen of op de groene pijlen voor aangrenzende kaarten.


METAR-TAF: